AEE317 EFHK-UUWW
Flight info
| Callsign | AEE317 |
|---|---|
| Flight time | N/A |
| Altitude | 37000 |
| Route | ARVEP T82 RATMU DCT INLOG T73 DESUD T834 ADOKU/K0822F270 T834 BEKIP BEKIP3B |
| Aircraft | B737/M-SDE2E3FGHIRWXY/LB1 |
Departure
| Time | N/A |
|---|---|
| Airport | Helsinki Vantaa Airport (EFHK) |
Arrival
| Time | 2026-05-04 13:52 |
|---|---|
| Airport | Vnukovo International Airport (UUWW) |
| Time | Latitude | Longitude | Altitude | Speed | Heading |
|---|---|---|---|---|---|
| 2026-05-04 12:47 | 59.69736 | 31.03831 | 36695 ft | 494 kts | 108° |
| 2026-05-04 12:48 | 59.68841 | 31.10395 | 36694 ft | 494 kts | 108° |
| 2026-05-04 12:48 | 59.66340 | 31.22896 | 36705 ft | 486 kts | 122° |
| 2026-05-04 12:49 | 59.63062 | 31.34560 | 36701 ft | 485 kts | 123° |
| 2026-05-04 12:49 | 59.59786 | 31.46201 | 36703 ft | 486 kts | 123° |
| 2026-05-04 12:50 | 59.56540 | 31.57943 | 36701 ft | 487 kts | 122° |
| 2026-05-04 12:50 | 59.53297 | 31.69679 | 36704 ft | 488 kts | 122° |
| 2026-05-04 12:51 | 59.50030 | 31.81413 | 36711 ft | 488 kts | 123° |
| 2026-05-04 12:51 | 59.46059 | 31.92047 | 36723 ft | 479 kts | 137° |
| 2026-05-04 12:52 | 59.41573 | 32.01743 | 36713 ft | 481 kts | 136° |
| 2026-05-04 12:52 | 59.37520 | 32.10752 | 36709 ft | 481 kts | 136° |
| 2026-05-04 12:53 | 59.33375 | 32.19979 | 36713 ft | 481 kts | 136° |
| 2026-05-04 12:53 | 59.28975 | 32.29733 | 36710 ft | 481 kts | 136° |
| 2026-05-04 12:54 | 59.24538 | 32.39518 | 36712 ft | 481 kts | 136° |
| 2026-05-04 12:54 | 59.20090 | 32.49281 | 36710 ft | 481 kts | 136° |
| 2026-05-04 12:55 | 59.15641 | 32.59002 | 36716 ft | 480 kts | 136° |
| 2026-05-04 12:55 | 59.11192 | 32.68684 | 36724 ft | 479 kts | 136° |
| 2026-05-04 12:56 | 59.06736 | 32.78339 | 36718 ft | 480 kts | 136° |
| 2026-05-04 12:56 | 59.02407 | 32.87680 | 36726 ft | 479 kts | 136° |
| 2026-05-04 12:57 | 58.97944 | 32.97275 | 36729 ft | 479 kts | 136° |
| 2026-05-04 12:57 | 58.93476 | 33.06843 | 36748 ft | 479 kts | 136° |
| 2026-05-04 12:58 | 58.88999 | 33.16387 | 36750 ft | 479 kts | 136° |
| 2026-05-04 12:58 | 58.84514 | 33.25900 | 36745 ft | 479 kts | 136° |
| 2026-05-04 12:59 | 58.80018 | 33.35402 | 36758 ft | 479 kts | 136° |
| 2026-05-04 12:59 | 58.75546 | 33.44817 | 36760 ft | 479 kts | 136° |
| 2026-05-04 13:00 | 58.71037 | 33.54273 | 36758 ft | 479 kts | 136° |
| 2026-05-04 13:00 | 58.66523 | 33.63704 | 36766 ft | 479 kts | 136° |
| 2026-05-04 13:01 | 58.62004 | 33.73106 | 36773 ft | 479 kts | 136° |
| 2026-05-04 13:01 | 58.57477 | 33.82483 | 36767 ft | 479 kts | 136° |
| 2026-05-04 13:02 | 58.52948 | 33.91829 | 36772 ft | 478 kts | 136° |
| 2026-05-04 13:02 | 58.48416 | 34.01143 | 36777 ft | 478 kts | 136° |
| 2026-05-04 13:03 | 58.43885 | 34.10418 | 36775 ft | 478 kts | 136° |
| 2026-05-04 13:03 | 58.39345 | 34.19669 | 36787 ft | 478 kts | 136° |
| 2026-05-04 13:04 | 58.34801 | 34.28894 | 36822 ft | 477 kts | 136° |
| 2026-05-04 13:04 | 58.30248 | 34.38105 | 36828 ft | 477 kts | 136° |
| 2026-05-04 13:05 | 58.25687 | 34.47293 | 36827 ft | 478 kts | 136° |
| 2026-05-04 13:05 | 58.21122 | 34.56452 | 36828 ft | 478 kts | 136° |
| 2026-05-04 13:06 | 58.16225 | 34.64907 | 36837 ft | 475 kts | 143° |
| 2026-05-04 13:06 | 58.11128 | 34.72774 | 36831 ft | 476 kts | 144° |
| 2026-05-04 13:07 | 58.05997 | 34.80693 | 36828 ft | 477 kts | 143° |
| 2026-05-04 13:07 | 58.00885 | 34.88689 | 36831 ft | 477 kts | 143° |
| 2026-05-04 13:08 | 57.95777 | 34.96691 | 36832 ft | 477 kts | 143° |
| 2026-05-04 13:08 | 57.90676 | 35.04653 | 36833 ft | 476 kts | 143° |
| 2026-05-04 13:09 | 57.85570 | 35.12584 | 36828 ft | 476 kts | 143° |
| 2026-05-04 13:09 | 57.80454 | 35.20495 | 36837 ft | 476 kts | 143° |
| 2026-05-04 13:10 | 57.75333 | 35.28391 | 36835 ft | 477 kts | 143° |
| 2026-05-04 13:10 | 57.70200 | 35.36274 | 36833 ft | 477 kts | 143° |
| 2026-05-04 13:11 | 57.65064 | 35.44139 | 36840 ft | 477 kts | 143° |
| 2026-05-04 13:11 | 57.59717 | 35.51271 | 36845 ft | 473 kts | 155° |
| 2026-05-04 13:12 | 57.53616 | 35.55538 | 36851 ft | 467 kts | 167° |
| 2026-05-04 13:12 | 57.47377 | 35.59015 | 36839 ft | 469 kts | 167° |
| 2026-05-04 13:13 | 57.41131 | 35.62605 | 36840 ft | 470 kts | 166° |
| 2026-05-04 13:13 | 57.34885 | 35.66250 | 36841 ft | 471 kts | 166° |
| 2026-05-04 13:14 | 57.28753 | 35.70551 | 36846 ft | 475 kts | 154° |
| 2026-05-04 13:14 | 57.23235 | 35.77382 | 36852 ft | 478 kts | 147° |
| 2026-05-04 13:15 | 57.17841 | 35.84511 | 36851 ft | 478 kts | 147° |
| 2026-05-04 13:15 | 57.12408 | 35.91562 | 36851 ft | 478 kts | 147° |
| 2026-05-04 13:16 | 57.06950 | 35.98541 | 36856 ft | 477 kts | 147° |
| 2026-05-04 13:16 | 57.01529 | 36.05416 | 36856 ft | 477 kts | 147° |
| 2026-05-04 13:17 | 56.96041 | 36.12381 | 36119 ft | 484 kts | 147° |
| 2026-05-04 13:17 | 56.93274 | 36.15881 | 35423 ft | 483 kts | 147° |
| 2026-05-04 13:17 | 56.90503 | 36.19379 | 34622 ft | 485 kts | 147° |
| 2026-05-04 13:17 | 56.87725 | 36.22874 | 33809 ft | 486 kts | 146° |
| 2026-05-04 13:18 | 56.84959 | 36.26347 | 32929 ft | 487 kts | 146° |
| 2026-05-04 13:18 | 56.82158 | 36.29873 | 32030 ft | 490 kts | 146° |
| 2026-05-04 13:18 | 56.79481 | 36.33548 | 31112 ft | 492 kts | 142° |
| 2026-05-04 13:18 | 56.76830 | 36.37548 | 30116 ft | 493 kts | 140° |
| 2026-05-04 13:19 | 56.74235 | 36.41566 | 29028 ft | 491 kts | 141° |
| 2026-05-04 13:19 | 56.72513 | 36.44233 | 28271 ft | 490 kts | 140° |
| 2026-05-04 13:19 | 56.69014 | 36.49555 | 26670 ft | 492 kts | 143° |
| 2026-05-04 13:19 | 56.66360 | 36.53284 | 26551 ft | 471 kts | 143° |
| 2026-05-04 13:20 | 56.63849 | 36.56980 | 26280 ft | 456 kts | 141° |
| 2026-05-04 13:20 | 56.61821 | 36.60049 | 26118 ft | 444 kts | 142° |
| 2026-05-04 13:20 | 56.59449 | 36.63530 | 25910 ft | 432 kts | 145° |
| 2026-05-04 13:20 | 56.56851 | 36.65994 | 25614 ft | 414 kts | 166° |
| 2026-05-04 13:21 | 56.54098 | 36.67248 | 25312 ft | 407 kts | 169° |
| 2026-05-04 13:21 | 56.51357 | 36.68387 | 24894 ft | 401 kts | 170° |
| 2026-05-04 13:21 | 56.48678 | 36.69479 | 24519 ft | 397 kts | 170° |
| 2026-05-04 13:21 | 56.46386 | 36.70428 | 24201 ft | 394 kts | 170° |
| 2026-05-04 13:22 | 56.44211 | 36.71345 | 23899 ft | 391 kts | 170° |
| 2026-05-04 13:22 | 56.41573 | 36.72453 | 23516 ft | 388 kts | 170° |
| 2026-05-04 13:22 | 56.38945 | 36.73519 | 23189 ft | 385 kts | 170° |
| 2026-05-04 13:22 | 56.36363 | 36.74698 | 22805 ft | 383 kts | 167° |
| 2026-05-04 13:23 | 56.33972 | 36.75878 | 22476 ft | 383 kts | 169° |
| 2026-05-04 13:23 | 56.32460 | 36.76541 | 22263 ft | 382 kts | 171° |
| 2026-05-04 13:23 | 56.29863 | 36.77670 | 21929 ft | 387 kts | 169° |
| 2026-05-04 13:23 | 56.27254 | 36.78797 | 21537 ft | 387 kts | 170° |
| 2026-05-04 13:24 | 56.24790 | 36.79832 | 21199 ft | 381 kts | 169° |
| 2026-05-04 13:24 | 56.23110 | 36.80532 | 20972 ft | 381 kts | 170° |
| 2026-05-04 13:24 | 56.20565 | 36.81585 | 20621 ft | 381 kts | 170° |
| 2026-05-04 13:25 | 56.16108 | 36.83422 | 20002 ft | 383 kts | 170° |
| 2026-05-04 13:25 | 56.14174 | 36.84248 | 19701 ft | 379 kts | 168° |
| 2026-05-04 13:25 | 56.12029 | 36.85183 | 19373 ft | 374 kts | 169° |
| 2026-05-04 13:25 | 56.09673 | 36.86212 | 19072 ft | 367 kts | 169° |
| 2026-05-04 13:26 | 56.07235 | 36.87266 | 18750 ft | 363 kts | 169° |
| 2026-05-04 13:26 | 56.05002 | 36.88222 | 18446 ft | 361 kts | 169° |
| 2026-05-04 13:26 | 56.02722 | 36.89193 | 18133 ft | 359 kts | 169° |
| 2026-05-04 13:26 | 56.00818 | 36.90004 | 17869 ft | 357 kts | 169° |
| 2026-05-04 13:27 | 55.98569 | 36.90961 | 17560 ft | 356 kts | 169° |
| 2026-05-04 13:27 | 55.96197 | 36.91968 | 17223 ft | 354 kts | 169° |
| 2026-05-04 13:27 | 55.94062 | 36.92862 | 16935 ft | 354 kts | 170° |
| 2026-05-04 13:27 | 55.92516 | 36.93397 | 16751 ft | 350 kts | 174° |
| 2026-05-04 13:28 | 55.90159 | 36.93779 | 16531 ft | 345 kts | 179° |
| 2026-05-04 13:28 | 55.87788 | 36.94029 | 16303 ft | 344 kts | 179° |
| 2026-05-04 13:28 | 55.85513 | 36.94269 | 16066 ft | 346 kts | 179° |
| 2026-05-04 13:28 | 55.83261 | 36.94517 | 15839 ft | 349 kts | 180° |
| 2026-05-04 13:29 | 55.80855 | 36.94754 | 15607 ft | 348 kts | 177° |
| 2026-05-04 13:29 | 55.78606 | 36.95156 | 15378 ft | 348 kts | 177° |
| 2026-05-04 13:29 | 55.76212 | 36.95514 | 15122 ft | 344 kts | 178° |
| 2026-05-04 13:29 | 55.74383 | 36.95753 | 14947 ft | 337 kts | 178° |
| 2026-05-04 13:30 | 55.72234 | 36.96054 | 14657 ft | 334 kts | 176° |
| 2026-05-04 13:30 | 55.70122 | 36.96647 | 14333 ft | 326 kts | 171° |
| 2026-05-04 13:30 | 55.68393 | 36.97213 | 14070 ft | 324 kts | 174° |
| 2026-05-04 13:30 | 55.66208 | 36.97771 | 13767 ft | 320 kts | 174° |
| 2026-05-04 13:31 | 55.64608 | 36.98241 | 13537 ft | 317 kts | 172° |
| 2026-05-04 13:31 | 55.62460 | 36.98927 | 13189 ft | 315 kts | 173° |
| 2026-05-04 13:31 | 55.60436 | 36.99511 | 12872 ft | 312 kts | 173° |
| 2026-05-04 13:31 | 55.58418 | 36.99936 | 12557 ft | 307 kts | 180° |
| 2026-05-04 13:32 | 55.56505 | 36.99970 | 12273 ft | 304 kts | 184° |
| 2026-05-04 13:32 | 55.54762 | 36.99916 | 12008 ft | 301 kts | 184° |
| 2026-05-04 13:32 | 55.52894 | 36.99852 | 11718 ft | 299 kts | 184° |
| 2026-05-04 13:32 | 55.51056 | 36.99803 | 11450 ft | 298 kts | 184° |
| 2026-05-04 13:33 | 55.49370 | 36.99774 | 11191 ft | 297 kts | 183° |
| 2026-05-04 13:33 | 55.47513 | 36.99758 | 10916 ft | 296 kts | 183° |
| 2026-05-04 13:33 | 55.45760 | 36.99751 | 10647 ft | 295 kts | 183° |
| 2026-05-04 13:33 | 55.44009 | 36.99748 | 10393 ft | 295 kts | 182° |
| 2026-05-04 13:34 | 55.42619 | 36.99748 | 10187 ft | 295 kts | 182° |
| 2026-05-04 13:34 | 55.40676 | 36.99762 | 9904 ft | 295 kts | 183° |
| 2026-05-04 13:34 | 55.38812 | 36.99507 | 9765 ft | 283 kts | 189° |
| 2026-05-04 13:34 | 55.37062 | 36.99164 | 9479 ft | 282 kts | 189° |
| 2026-05-04 13:35 | 55.36204 | 36.98984 | 9349 ft | 281 kts | 189° |
| 2026-05-04 13:35 | 55.33718 | 36.98436 | 8910 ft | 278 kts | 188° |
| 2026-05-04 13:35 | 55.32300 | 36.98172 | 8770 ft | 274 kts | 189° |
| 2026-05-04 13:36 | 55.30455 | 36.97810 | 8509 ft | 275 kts | 189° |
| 2026-05-04 13:36 | 55.28737 | 36.97476 | 8276 ft | 274 kts | 189° |
| 2026-05-04 13:36 | 55.26852 | 36.97209 | 8044 ft | 270 kts | 179° |
| 2026-05-04 13:36 | 55.25078 | 36.97909 | 8028 ft | 266 kts | 165° |
| 2026-05-04 13:37 | 55.23509 | 36.98765 | 8007 ft | 263 kts | 165° |
| 2026-05-04 13:37 | 55.21761 | 36.99704 | 8014 ft | 264 kts | 166° |
| 2026-05-04 13:37 | 55.19997 | 37.00638 | 8019 ft | 267 kts | 166° |
| 2026-05-04 13:37 | 55.18206 | 37.01577 | 8021 ft | 269 kts | 166° |
| 2026-05-04 13:38 | 55.16426 | 37.02505 | 7998 ft | 263 kts | 166° |
| 2026-05-04 13:38 | 55.14791 | 37.03708 | 7991 ft | 251 kts | 144° |
| 2026-05-04 13:38 | 55.13715 | 37.05997 | 8008 ft | 243 kts | 114° |
| 2026-05-04 13:38 | 55.13369 | 37.08891 | 7900 ft | 248 kts | 88° |
| 2026-05-04 13:39 | 55.13707 | 37.11800 | 7716 ft | 244 kts | 58° |
| 2026-05-04 13:39 | 55.14587 | 37.14295 | 7625 ft | 239 kts | 58° |
| 2026-05-04 13:39 | 55.15402 | 37.16830 | 7476 ft | 238 kts | 59° |
| 2026-05-04 13:39 | 55.16200 | 37.19373 | 7338 ft | 238 kts | 59° |
| 2026-05-04 13:40 | 55.16999 | 37.21907 | 7197 ft | 238 kts | 59° |
| 2026-05-04 13:40 | 55.17785 | 37.24407 | 7074 ft | 237 kts | 58° |
| 2026-05-04 13:40 | 55.18596 | 37.26911 | 6932 ft | 237 kts | 59° |
| 2026-05-04 13:40 | 55.19408 | 37.29444 | 6776 ft | 238 kts | 59° |
| 2026-05-04 13:41 | 55.20219 | 37.31962 | 6664 ft | 237 kts | 59° |
| 2026-05-04 13:41 | 55.21043 | 37.34461 | 6529 ft | 236 kts | 52° |
| 2026-05-04 13:41 | 55.22285 | 37.36207 | 6371 ft | 229 kts | 16° |
| 2026-05-04 13:42 | 55.25364 | 37.36765 | 6148 ft | 222 kts | 358° |
| 2026-05-04 13:42 | 55.26903 | 37.36824 | 6035 ft | 221 kts | 358° |
| 2026-05-04 13:42 | 55.28443 | 37.36897 | 5894 ft | 222 kts | 358° |
| 2026-05-04 13:42 | 55.29991 | 37.36975 | 5760 ft | 224 kts | 358° |
| 2026-05-04 13:43 | 55.31549 | 37.37064 | 5647 ft | 225 kts | 1° |
| 2026-05-04 13:43 | 55.33100 | 37.37611 | 5517 ft | 227 kts | 12° |
| 2026-05-04 13:43 | 55.34622 | 37.38366 | 5374 ft | 228 kts | 13° |
| 2026-05-04 13:43 | 55.36129 | 37.39120 | 5243 ft | 228 kts | 12° |
| 2026-05-04 13:44 | 55.37657 | 37.39876 | 5114 ft | 228 kts | 12° |
| 2026-05-04 13:44 | 55.39202 | 37.40632 | 5003 ft | 227 kts | 12° |
| 2026-05-04 13:44 | 55.40705 | 37.41363 | 4857 ft | 227 kts | 12° |
| 2026-05-04 13:44 | 55.42224 | 37.42097 | 4718 ft | 226 kts | 12° |
| 2026-05-04 13:45 | 55.43733 | 37.42827 | 4591 ft | 224 kts | 12° |
| 2026-05-04 13:45 | 55.45232 | 37.43548 | 4478 ft | 223 kts | 12° |
| 2026-05-04 13:45 | 55.46727 | 37.44267 | 4339 ft | 221 kts | 12° |
| 2026-05-04 13:45 | 55.48210 | 37.44978 | 4223 ft | 221 kts | 12° |
| 2026-05-04 13:46 | 55.49693 | 37.45691 | 4087 ft | 221 kts | 12° |
| 2026-05-04 13:46 | 55.51185 | 37.46406 | 3925 ft | 224 kts | 12° |
| 2026-05-04 13:46 | 55.52706 | 37.47141 | 3684 ft | 227 kts | 12° |
| 2026-05-04 13:46 | 55.54236 | 37.47880 | 3454 ft | 227 kts | 12° |
| 2026-05-04 13:47 | 55.55733 | 37.48611 | 3242 ft | 222 kts | 12° |
| 2026-05-04 13:47 | 55.57207 | 37.49328 | 3027 ft | 217 kts | 12° |
| 2026-05-04 13:47 | 55.58645 | 37.50001 | 2769 ft | 210 kts | 6° |
| 2026-05-04 13:47 | 55.59999 | 37.49723 | 2620 ft | 187 kts | 335° |
| 2026-05-04 13:48 | 55.61169 | 37.48912 | 2505 ft | 175 kts | 334° |
| 2026-05-04 13:48 | 55.62250 | 37.48160 | 2368 ft | 166 kts | 334° |
| 2026-05-04 13:48 | 55.63159 | 37.47018 | 2221 ft | 160 kts | 293° |
| 2026-05-04 13:48 | 55.63213 | 37.45150 | 2220 ft | 155 kts | 254° |
| 2026-05-04 13:49 | 55.62926 | 37.43350 | 2210 ft | 147 kts | 255° |
| 2026-05-04 13:49 | 55.62647 | 37.41763 | 2154 ft | 126 kts | 251° |
| 2026-05-04 13:49 | 55.62353 | 37.40376 | 2048 ft | 119 kts | 250° |
| 2026-05-04 13:49 | 55.62040 | 37.38963 | 1880 ft | 124 kts | 249° |
| 2026-05-04 13:50 | 55.61717 | 37.37538 | 1707 ft | 126 kts | 249° |
| 2026-05-04 13:50 | 55.61389 | 37.36079 | 1564 ft | 132 kts | 250° |
| 2026-05-04 13:50 | 55.61044 | 37.34541 | 1380 ft | 138 kts | 249° |
| 2026-05-04 13:50 | 55.60690 | 37.32975 | 1192 ft | 134 kts | 250° |
| 2026-05-04 13:51 | 55.60349 | 37.31458 | 1003 ft | 130 kts | 249° |
| 2026-05-04 13:51 | 55.60017 | 37.29989 | 826 ft | 130 kts | 249° |
| 2026-05-04 13:51 | 55.59682 | 37.28495 | 695 ft | 128 kts | 249° |
| 2026-05-04 13:51 | 55.59407 | 37.27268 | 669 ft | 80 kts | 248° |
| 2026-05-04 13:52 | 55.59254 | 37.26577 | 668 ft | 14 kts | 250° |
| 2026-05-04 13:52 | 55.59250 | 37.26560 | 668 ft | 0 kts | 245° |
| 2026-05-04 13:52 | 55.59243 | 37.26534 | 667 ft | 7 kts | 245° |
| 2026-05-04 13:53 | 55.59212 | 37.26402 | 667 ft | 16 kts | 248° |
| 2026-05-04 13:53 | 55.59161 | 37.26170 | 665 ft | 24 kts | 249° |
| 2026-05-04 13:53 | 55.59104 | 37.25920 | 667 ft | 16 kts | 249° |
| 2026-05-04 13:54 | 55.59217 | 37.25865 | 668 ft | 13 kts | 24° |
| 2026-05-04 13:54 | 55.59294 | 37.25924 | 667 ft | 12 kts | 24° |
| 2026-05-04 13:54 | 55.59392 | 37.26172 | 667 ft | 14 kts | 69° |
| 2026-05-04 13:55 | 55.59429 | 37.26337 | 666 ft | 15 kts | 69° |
| 2026-05-04 13:55 | 55.59512 | 37.26706 | 667 ft | 16 kts | 68° |
| 2026-05-04 13:55 | 55.59573 | 37.26888 | 666 ft | 19 kts | 49° |
| 2026-05-04 13:56 | 55.59670 | 37.27070 | 665 ft | 22 kts | 45° |
| 2026-05-04 13:56 | 55.59773 | 37.27262 | 671 ft | 21 kts | 46° |
| 2026-05-04 13:56 | 55.59933 | 37.27560 | 679 ft | 11 kts | 52° |
| 2026-05-04 13:57 | 55.59981 | 37.27678 | 678 ft | 13 kts | 38° |
| 2026-05-04 13:57 | 55.60055 | 37.27784 | 679 ft | 13 kts | 39° |
| 2026-05-04 13:58 | 55.60106 | 37.28093 | 676 ft | 10 kts | 41° |
| 2026-05-04 13:58 | 55.60143 | 37.28143 | 679 ft | 1 kts | 36° |
| 2026-05-04 13:58 | 55.60147 | 37.28148 | 679 ft | 0 kts | 36° |